createdAt,value
2018-09-27T00:00:44.017Z,16.97
2018-09-27T00:03:11.198Z,15.00
2018-09-27T00:05:38.327Z,8.27
2018-09-27T00:08:05.524Z,11.73
2018-09-27T00:10:32.684Z,11.90
2018-09-27T00:12:59.816Z,8.50
2018-09-27T00:15:26.945Z,8.60
2018-09-27T00:17:54.077Z,13.10
2018-09-27T00:20:21.273Z,8.80
2018-09-27T00:22:48.471Z,11.60
2018-09-27T00:25:15.581Z,10.13
2018-09-27T00:27:42.702Z,9.47
2018-09-27T00:30:09.869Z,7.93
2018-09-27T00:32:36.995Z,8.40
2018-09-27T00:35:04.320Z,6.73
2018-09-27T00:37:31.468Z,9.93
2018-09-27T00:39:58.616Z,6.83
2018-09-27T00:42:25.753Z,7.30
2018-09-27T00:44:52.896Z,7.30
2018-09-27T00:47:20.043Z,10.43
2018-09-27T00:49:47.187Z,5.37
2018-09-27T00:52:14.313Z,5.10
2018-09-27T00:54:41.445Z,6.60
2018-09-27T00:57:08.538Z,5.43
2018-09-27T00:59:35.753Z,5.43
2018-09-27T01:02:02.970Z,6.87
2018-09-27T01:04:30.159Z,5.00
2018-09-27T01:06:57.313Z,5.70
2018-09-27T01:09:24.477Z,6.60
2018-09-27T01:11:51.635Z,6.33
2018-09-27T01:14:18.844Z,5.40
2018-09-27T01:16:45.948Z,7.57
2018-09-27T01:19:13.075Z,4.33
2018-09-27T01:21:40.224Z,9.23
2018-09-27T01:24:07.439Z,5.57
2018-09-27T01:26:34.572Z,6.10
2018-09-27T01:29:01.775Z,5.10
2018-09-27T01:31:28.912Z,4.53
2018-09-27T01:33:56.104Z,5.87
2018-09-27T01:36:23.279Z,6.37
2018-09-27T01:38:50.466Z,5.23
2018-09-27T01:41:17.602Z,8.27
2018-09-27T01:43:44.835Z,6.07
2018-09-27T01:46:11.992Z,6.10
2018-09-27T01:48:39.135Z,5.50
2018-09-27T01:51:06.358Z,7.20
2018-09-27T01:53:33.509Z,6.17
2018-09-27T01:56:00.662Z,4.90
2018-09-27T01:58:28.043Z,5.73
2018-09-27T02:00:55.257Z,6.93
2018-09-27T02:03:22.447Z,5.73
2018-09-27T02:05:49.659Z,6.80
2018-09-27T02:08:16.914Z,7.83
2018-09-27T02:10:44.141Z,6.40
2018-09-27T02:13:11.315Z,5.90
2018-09-27T02:15:38.495Z,7.30
2018-09-27T02:18:05.636Z,5.40
2018-09-27T02:20:32.795Z,8.63
2018-09-27T02:22:59.929Z,4.60
2018-09-27T02:25:27.122Z,4.70
2018-09-27T02:27:54.316Z,10.13
2018-09-27T02:30:21.562Z,15.73
2018-09-27T02:32:48.749Z,5.80
2018-09-27T02:35:15.949Z,7.93
2018-09-27T02:37:43.069Z,5.13
2018-09-27T02:40:10.651Z,6.00
2018-09-27T02:42:37.853Z,7.83
2018-09-27T02:45:05.128Z,5.87
2018-09-27T02:47:32.286Z,6.50
2018-09-27T02:49:59.511Z,6.70
2018-09-27T02:52:26.731Z,5.33
2018-09-27T02:54:53.910Z,6.47
2018-09-27T02:57:21.057Z,9.60
2018-09-27T02:59:48.253Z,8.07
2018-09-27T03:02:15.436Z,7.13
2018-09-27T03:04:42.619Z,6.00
2018-09-27T03:07:09.864Z,4.60
2018-09-27T03:09:37.092Z,5.90
2018-09-27T03:12:04.284Z,7.23
2018-09-27T03:14:31.517Z,8.13
2018-09-27T03:16:58.692Z,4.60
2018-09-27T03:19:25.889Z,5.00
2018-09-27T03:21:53.059Z,6.73
2018-09-27T03:24:20.218Z,11.30
2018-09-27T03:26:47.423Z,5.07
2018-09-27T03:29:14.633Z,9.70
2018-09-27T03:31:41.806Z,5.90
2018-09-27T03:34:08.990Z,6.00
2018-09-27T03:36:36.197Z,9.63
2018-09-27T03:39:05.084Z,9.50
2018-09-27T03:41:32.281Z,12.43
2018-09-27T03:43:59.480Z,11.67
2018-09-27T03:46:26.697Z,7.97
2018-09-27T03:48:54.535Z,8.40
2018-09-27T03:51:21.776Z,8.23
2018-09-27T03:53:48.992Z,7.60
2018-09-27T03:56:16.297Z,7.50
2018-09-27T03:58:43.531Z,6.40
2018-09-27T04:01:10.746Z,9.60
2018-09-27T04:03:37.893Z,11.03
2018-09-27T04:06:05.161Z,10.40
2018-09-27T04:08:32.376Z,8.13
2018-09-27T04:10:59.556Z,7.53
2018-09-27T04:13:26.718Z,16.07
2018-09-27T04:15:53.925Z,9.13
2018-09-27T04:18:21.148Z,7.63
2018-09-27T04:20:51.380Z,8.97
2018-09-27T04:23:19.928Z,7.53
2018-09-27T04:25:47.170Z,6.50
2018-09-27T04:28:14.358Z,8.60
2018-09-27T04:30:41.566Z,13.97
2018-09-27T04:33:08.719Z,14.57
2018-09-27T04:35:35.868Z,9.50
2018-09-27T04:38:03.265Z,11.53
2018-09-27T04:40:30.408Z,11.73
2018-09-27T04:42:57.549Z,10.80
2018-09-27T04:45:24.756Z,13.60
2018-09-27T04:47:51.885Z,11.13
2018-09-27T04:50:19.053Z,12.37
2018-09-27T04:52:46.211Z,10.80
2018-09-27T04:55:13.410Z,11.57
2018-09-27T04:57:40.551Z,13.37
2018-09-27T05:00:07.726Z,8.03
2018-09-27T05:02:34.878Z,7.30
2018-09-27T05:05:02.783Z,7.43
2018-09-27T05:07:30.023Z,8.47
2018-09-27T05:09:57.183Z,10.00
2018-09-27T05:12:24.339Z,7.40
2018-09-27T05:14:51.473Z,6.67
2018-09-27T05:17:18.637Z,7.43
2018-09-27T05:19:45.797Z,8.57
2018-09-27T05:22:12.984Z,7.17
2018-09-27T05:24:40.120Z,7.30
2018-09-27T05:27:07.466Z,7.87
2018-09-27T05:29:34.566Z,7.47
2018-09-27T05:32:01.771Z,9.67
2018-09-27T05:34:29.039Z,7.00
2018-09-27T05:36:56.249Z,6.47
2018-09-27T05:39:23.499Z,10.10
2018-09-27T05:41:50.648Z,9.80
2018-09-27T05:44:17.775Z,10.13
2018-09-27T05:46:45.012Z,12.70
2018-09-27T05:49:12.191Z,8.77
2018-09-27T05:51:39.426Z,6.93
2018-09-27T05:54:06.525Z,7.63
2018-09-27T05:56:34.478Z,8.20
2018-09-27T05:59:01.617Z,8.90
2018-09-27T06:01:28.767Z,9.83
2018-09-27T06:03:55.936Z,9.97
2018-09-27T06:06:23.095Z,15.40
2018-09-27T06:08:51.275Z,9.40
2018-09-27T06:11:18.900Z,7.90
2018-09-27T06:13:46.025Z,8.50
2018-09-27T06:16:13.200Z,8.37
2018-09-27T06:18:40.440Z,9.10
2018-09-27T06:21:07.637Z,8.40
2018-09-27T06:23:34.804Z,7.53
2018-09-27T06:26:01.993Z,11.77
2018-09-27T06:28:29.171Z,9.03
2018-09-27T06:30:56.288Z,12.00
2018-09-27T06:33:23.541Z,10.27
2018-09-27T06:35:50.676Z,9.97
2018-09-27T06:38:18.099Z,9.20
2018-09-27T06:40:45.311Z,8.90
2018-09-27T06:43:12.451Z,8.97
2018-09-27T06:45:39.613Z,7.00
2018-09-27T06:48:06.810Z,8.37
2018-09-27T06:50:33.980Z,9.37
2018-09-27T06:53:01.138Z,13.40
2018-09-27T06:55:28.476Z,7.63
2018-09-27T06:57:55.487Z,11.73
2018-09-27T07:00:22.633Z,7.00
2018-09-27T07:02:49.865Z,7.53
2018-09-27T07:05:17.048Z,10.77
2018-09-27T07:07:44.216Z,8.33
2018-09-27T07:10:11.416Z,11.47
2018-09-27T07:12:38.609Z,8.67
2018-09-27T07:15:05.803Z,7.13
2018-09-27T07:17:32.925Z,10.00
2018-09-27T07:20:00.100Z,7.10
2018-09-27T07:22:27.287Z,18.43
2018-09-27T07:24:54.435Z,15.37
2018-09-27T07:27:21.615Z,10.87
2018-09-27T07:29:48.785Z,16.47
2018-09-27T07:32:15.994Z,7.47
2018-09-27T07:34:43.195Z,9.63
2018-09-27T07:37:10.367Z,7.33
2018-09-27T07:39:37.528Z,6.83
2018-09-27T07:42:04.709Z,8.30
2018-09-27T07:44:31.908Z,7.70
2018-09-27T07:46:59.092Z,7.13
2018-09-27T07:49:26.311Z,7.57
2018-09-27T07:51:53.503Z,8.03
2018-09-27T07:54:20.704Z,11.40
2018-09-27T07:56:47.841Z,9.30
2018-09-27T07:59:14.941Z,13.23
2018-09-27T08:01:42.108Z,11.93
2018-09-27T08:04:09.429Z,10.90
2018-09-27T08:06:36.568Z,11.27
2018-09-27T08:09:05.996Z,8.23
2018-09-27T08:11:33.197Z,11.83
2018-09-27T08:14:00.316Z,8.50
2018-09-27T08:16:27.470Z,7.17
2018-09-27T08:18:54.609Z,6.80
2018-09-27T08:21:21.840Z,10.30
2018-09-27T08:23:48.953Z,9.33
2018-09-27T08:26:16.117Z,8.93
2018-09-27T08:28:43.317Z,8.57
2018-09-27T08:31:10.554Z,8.83
2018-09-27T08:33:37.715Z,9.13
2018-09-27T08:36:05.474Z,6.87
2018-09-27T08:38:32.660Z,8.03
2018-09-27T08:41:00.073Z,9.47
2018-09-27T08:43:27.212Z,7.33
2018-09-27T08:45:54.386Z,9.13
2018-09-27T08:48:21.553Z,11.60
2018-09-27T08:50:48.718Z,11.67
2018-09-27T08:53:15.916Z,8.57
2018-09-27T08:55:43.077Z,11.30
2018-09-27T08:58:10.233Z,10.73
2018-09-27T09:00:37.416Z,7.77
2018-09-27T09:03:04.569Z,12.87
2018-09-27T09:05:31.743Z,10.40
2018-09-27T09:07:58.918Z,8.30
2018-09-27T09:10:26.107Z,15.23
2018-09-27T09:12:53.301Z,9.60
2018-09-27T09:15:20.664Z,7.77
2018-09-27T09:17:47.843Z,12.77
2018-09-27T09:20:15.044Z,9.70
2018-09-27T09:22:42.337Z,9.50
2018-09-27T09:25:09.460Z,9.40
2018-09-27T09:27:36.738Z,9.63
2018-09-27T09:30:04.253Z,7.87
2018-09-27T09:32:31.433Z,10.97
2018-09-27T09:34:58.601Z,6.93
2018-09-27T09:37:25.760Z,8.13
2018-09-27T09:39:52.909Z,6.40
2018-09-27T09:42:20.113Z,8.10
2018-09-27T09:44:47.428Z,6.87
2018-09-27T09:47:14.658Z,9.90
2018-09-27T09:49:41.788Z,6.50
2018-09-27T09:52:09.000Z,6.50
2018-09-27T09:54:36.202Z,8.67
2018-09-27T09:57:03.376Z,9.10
2018-09-27T09:59:30.559Z,10.43
2018-09-27T10:01:57.873Z,10.23
2018-09-27T10:04:25.071Z,7.87
2018-09-27T10:06:52.292Z,8.97
2018-09-27T10:09:19.471Z,10.40
2018-09-27T10:11:46.649Z,7.77
2018-09-27T10:14:13.813Z,11.13
2018-09-27T10:16:41.030Z,9.13
2018-09-27T10:19:08.298Z,6.57
2018-09-27T10:21:35.522Z,7.33
2018-09-27T10:24:02.672Z,10.47
2018-09-27T10:26:29.898Z,9.30
2018-09-27T10:28:57.092Z,10.13
2018-09-27T10:31:24.304Z,9.07
2018-09-27T10:33:51.551Z,8.43
2018-09-27T10:36:18.821Z,9.10
2018-09-27T10:38:46.039Z,7.70
2018-09-27T10:41:13.233Z,6.77
2018-09-27T10:43:40.447Z,7.10
2018-09-27T10:46:07.623Z,11.10
2018-09-27T10:48:34.844Z,7.80
2018-09-27T10:51:02.089Z,8.20
2018-09-27T10:53:29.294Z,6.87
2018-09-27T10:55:56.460Z,7.60
2018-09-27T10:58:23.685Z,10.73
2018-09-27T11:00:50.923Z,8.30
2018-09-27T11:03:18.148Z,7.50
2018-09-27T11:05:45.423Z,8.00
2018-09-27T11:08:12.609Z,6.73
2018-09-27T11:10:39.829Z,8.23
2018-09-27T11:13:07.040Z,7.47
2018-09-27T11:15:34.244Z,7.93
2018-09-27T11:18:01.450Z,6.43
2018-09-27T11:20:28.634Z,6.23
2018-09-27T11:22:55.917Z,7.60
2018-09-27T11:25:23.126Z,6.23
2018-09-27T11:27:50.372Z,9.60
2018-09-27T11:30:23.143Z,9.73
2018-09-27T11:32:50.414Z,6.60
2018-09-27T11:35:17.542Z,8.00
2018-09-27T11:37:44.720Z,6.20
2018-09-27T11:40:11.932Z,7.27
2018-09-27T11:42:39.481Z,4.40
2018-09-27T11:45:07.017Z,7.33
2018-09-27T11:47:34.241Z,4.57
2018-09-27T11:50:01.500Z,8.73
2018-09-27T11:52:28.764Z,4.20
2018-09-27T11:54:55.987Z,4.43
2018-09-27T11:57:23.194Z,4.30
2018-09-27T11:59:50.439Z,3.63
2018-09-27T12:02:17.695Z,3.40
2018-09-27T12:04:44.877Z,4.77
2018-09-27T12:07:12.405Z,3.83
2018-09-27T12:09:39.564Z,4.50
2018-09-27T12:12:06.853Z,2.77
2018-09-27T12:14:34.052Z,5.03
2018-09-27T12:17:01.264Z,5.77
2018-09-27T12:19:28.660Z,4.00
2018-09-27T12:21:55.784Z,2.80
2018-09-27T12:24:22.962Z,3.10
2018-09-27T12:26:50.203Z,3.33
2018-09-27T12:29:17.448Z,3.83
2018-09-27T12:31:44.739Z,7.30
2018-09-27T12:34:12.098Z,3.07
2018-09-27T12:36:39.316Z,3.70
2018-09-27T12:39:07.926Z,2.90
2018-09-27T12:41:35.219Z,3.43
2018-09-27T12:44:02.371Z,3.83
2018-09-27T12:46:29.654Z,4.17
2018-09-27T12:48:56.806Z,3.20
2018-09-27T12:51:24.038Z,2.87
2018-09-27T12:53:51.329Z,3.07
2018-09-27T12:56:18.553Z,3.10
2018-09-27T12:58:45.795Z,4.07
2018-09-27T13:01:13.009Z,5.10
2018-09-27T13:03:40.255Z,2.70
2018-09-27T13:06:07.494Z,4.07
2018-09-27T13:08:34.741Z,2.73
2018-09-27T13:11:01.993Z,2.13
2018-09-27T13:13:29.395Z,2.73
2018-09-27T13:15:56.434Z,3.40
2018-09-27T13:18:23.678Z,2.60
2018-09-27T13:20:50.937Z,3.30
2018-09-27T13:23:18.130Z,4.07
2018-09-27T13:25:45.380Z,4.73
2018-09-27T13:28:12.520Z,3.20
2018-09-27T13:30:39.706Z,3.63
2018-09-27T13:33:07.000Z,2.60
2018-09-27T13:35:34.149Z,2.40
2018-09-27T13:38:01.389Z,2.47
2018-09-27T13:40:28.605Z,5.77
2018-09-27T13:42:55.860Z,3.87
2018-09-27T13:45:23.081Z,3.93
2018-09-27T13:47:50.302Z,2.60
2018-09-27T13:50:17.590Z,6.10
2018-09-27T13:52:44.820Z,2.17
2018-09-27T13:55:12.161Z,4.33
2018-09-27T13:57:39.270Z,2.77
2018-09-27T14:00:07.041Z,2.60
2018-09-27T14:02:34.289Z,2.30
2018-09-27T14:05:01.528Z,3.10
2018-09-27T14:07:28.780Z,1.83
2018-09-27T14:09:55.988Z,2.53
2018-09-27T14:12:23.156Z,1.77
2018-09-27T14:14:50.404Z,3.00
2018-09-27T14:17:17.615Z,4.13
2018-09-27T14:19:44.801Z,2.80
2018-09-27T14:22:12.012Z,2.13
2018-09-27T14:24:39.232Z,2.10
2018-09-27T14:27:06.585Z,5.50
2018-09-27T14:29:33.813Z,2.30
2018-09-27T14:32:01.001Z,2.10
2018-09-27T14:34:28.243Z,3.63
2018-09-27T14:36:55.544Z,2.37
2018-09-27T14:39:22.846Z,1.70
2018-09-27T14:41:50.111Z,3.80
2018-09-27T14:44:17.369Z,1.67
2018-09-27T14:46:44.707Z,3.40
2018-09-27T14:49:12.161Z,2.30
2018-09-27T14:51:40.083Z,3.83
2018-09-27T14:54:08.170Z,4.23
2018-09-27T14:56:36.647Z,3.23
2018-09-27T14:59:03.902Z,4.40
2018-09-27T15:01:31.195Z,3.60
2018-09-27T15:03:58.493Z,2.63
2018-09-27T15:06:25.794Z,4.27
2018-09-27T15:08:53.020Z,3.50
2018-09-27T15:11:20.245Z,5.43
2018-09-27T15:13:47.456Z,3.97
2018-09-27T15:16:14.738Z,2.23
2018-09-27T15:18:41.898Z,2.80
2018-09-27T15:21:09.105Z,3.10
2018-09-27T15:23:36.448Z,3.47
2018-09-27T15:26:03.631Z,2.83
2018-09-27T15:28:30.802Z,2.83
2018-09-27T15:30:58.043Z,2.30
2018-09-27T15:33:25.320Z,5.80
2018-09-27T15:35:52.547Z,2.57
2018-09-27T15:38:19.740Z,6.87
2018-09-27T15:40:47.035Z,46.70
2018-09-27T15:43:14.204Z,12.90
2018-09-27T15:45:41.381Z,5.00
2018-09-27T15:48:08.672Z,5.63
2018-09-27T15:50:35.924Z,2.80
2018-09-27T15:53:03.192Z,3.70
2018-09-27T15:55:30.414Z,4.13
2018-09-27T15:57:57.585Z,2.07
2018-09-27T16:00:24.793Z,3.20
2018-09-27T16:02:52.157Z,5.27
2018-09-27T16:05:19.350Z,3.87
2018-09-27T16:07:46.510Z,2.60
2018-09-27T16:10:13.668Z,2.63
2018-09-27T16:12:40.881Z,7.33
2018-09-27T16:15:08.097Z,4.03
2018-09-27T16:17:35.354Z,4.43
2018-09-27T16:20:02.704Z,2.67
2018-09-27T16:22:29.909Z,3.30
2018-09-27T16:24:57.117Z,2.33
2018-09-27T16:27:24.333Z,7.87
2018-09-27T16:29:51.569Z,3.60
2018-09-27T16:32:18.737Z,4.03
2018-09-27T16:34:45.945Z,5.97
2018-09-27T16:37:13.270Z,3.67
2018-09-27T16:39:40.593Z,8.00
2018-09-27T16:42:07.788Z,7.37
2018-09-27T16:44:34.940Z,5.37
2018-09-27T16:47:02.238Z,12.27
2018-09-27T16:49:29.457Z,4.00
2018-09-27T16:51:56.625Z,11.77
2018-09-27T16:54:23.860Z,6.13
2018-09-27T16:56:51.024Z,7.67
2018-09-27T16:59:18.196Z,4.10
2018-09-27T17:01:45.441Z,7.40
2018-09-27T17:04:12.527Z,2.80
2018-09-27T17:06:39.692Z,2.10
2018-09-27T17:09:07.362Z,3.13
2018-09-27T17:11:34.553Z,6.53
2018-09-27T17:14:01.705Z,6.50
2018-09-27T17:16:28.891Z,4.57
2018-09-27T17:18:56.111Z,4.23
2018-09-27T17:21:23.325Z,6.27
2018-09-27T17:23:50.545Z,7.73
2018-09-27T17:26:17.725Z,6.60
2018-09-27T17:28:45.020Z,9.63
2018-09-27T17:31:12.170Z,9.63
2018-09-27T17:33:39.380Z,8.87
2018-09-27T17:36:06.755Z,8.77
2018-09-27T17:38:33.947Z,10.43
2018-09-27T17:41:01.133Z,10.80
2018-09-27T17:43:28.283Z,10.40
2018-09-27T17:45:55.571Z,9.97
2018-09-27T17:48:31.209Z,11.77
2018-09-27T17:50:58.579Z,14.67
2018-09-27T17:53:29.168Z,15.70
2018-09-27T17:56:03.820Z,17.63
2018-09-27T17:58:34.199Z,18.43
2018-09-27T18:01:04.067Z,18.00
2018-09-27T18:03:31.208Z,13.47
2018-09-27T18:05:58.396Z,15.70
2018-09-27T18:08:25.541Z,11.27
2018-09-27T18:10:52.739Z,12.27
2018-09-27T18:13:19.909Z,12.80
2018-09-27T18:15:47.108Z,13.83
2018-09-27T18:18:14.347Z,10.93
2018-09-27T18:20:41.558Z,14.50
2018-09-27T18:23:08.723Z,14.27
2018-09-27T18:25:35.982Z,16.53
2018-09-27T18:28:03.281Z,14.83
2018-09-27T18:30:30.623Z,13.43
2018-09-27T18:32:57.917Z,16.47
2018-09-27T18:35:25.197Z,20.23
2018-09-27T18:37:52.542Z,30.23
2018-09-27T18:40:19.658Z,14.07
2018-09-27T18:42:46.891Z,12.70
2018-09-27T18:45:14.134Z,14.70
2018-09-27T18:47:41.374Z,18.43
2018-09-27T18:50:08.890Z,14.63
2018-09-27T18:52:36.100Z,22.23
2018-09-27T18:55:03.712Z,24.20
2018-09-27T18:57:31.043Z,26.73
2018-09-27T18:59:58.204Z,27.13
2018-09-27T19:02:25.451Z,25.80
2018-09-27T19:04:52.745Z,30.00
2018-09-27T19:07:19.949Z,29.73
2018-09-27T19:09:47.185Z,19.97
2018-09-27T19:12:14.400Z,17.97
2018-09-27T19:14:41.636Z,25.43
2018-09-27T19:17:08.887Z,28.57
2018-09-27T19:19:36.084Z,17.90
2018-09-27T19:22:03.311Z,19.40
2018-09-27T19:24:30.514Z,13.93
2018-09-27T19:26:57.691Z,19.07
2018-09-27T19:29:24.920Z,17.47
2018-09-27T19:31:52.153Z,14.57
2018-09-27T19:34:19.428Z,14.90
2018-09-27T19:36:46.698Z,14.70
2018-09-27T19:39:13.983Z,15.70
2018-09-27T19:41:42.133Z,15.00
2018-09-27T19:44:09.713Z,18.27
2018-09-27T19:46:36.931Z,24.40
2018-09-27T19:49:04.033Z,17.93
2018-09-27T19:51:31.267Z,25.13
2018-09-27T19:53:58.517Z,24.00
2018-09-27T19:56:25.758Z,31.63
2018-09-27T19:58:52.982Z,21.87
2018-09-27T20:01:20.245Z,32.23
2018-09-27T20:03:47.462Z,38.97
2018-09-27T20:06:14.751Z,40.03
2018-09-27T20:08:41.960Z,42.57
2018-09-27T20:11:09.150Z,33.10
2018-09-27T20:13:36.386Z,43.47
2018-09-27T20:29:03.249Z,34.30
2018-09-27T20:31:30.432Z,21.03
2018-09-27T20:33:57.782Z,18.50
2018-09-27T20:36:25.088Z,19.00
2018-09-27T20:38:52.255Z,20.97
2018-09-27T20:41:19.501Z,18.23
2018-09-27T20:43:46.704Z,20.80
2018-09-27T20:46:13.907Z,15.50
2018-09-27T20:48:41.102Z,17.43
2018-09-27T20:51:08.285Z,12.70
2018-09-27T20:53:35.430Z,18.93
2018-09-27T20:56:02.590Z,22.23
2018-09-27T20:58:29.928Z,15.53
2018-09-27T21:00:57.260Z,14.07
2018-09-27T21:03:24.557Z,12.90
2018-09-27T21:05:51.701Z,16.23
2018-09-27T21:08:18.902Z,15.67
2018-09-27T21:10:46.037Z,12.83
2018-09-27T21:13:13.253Z,12.00
2018-09-27T21:15:40.416Z,9.83
2018-09-27T21:18:07.555Z,15.23
2018-09-27T21:20:34.688Z,9.60
2018-09-27T21:23:01.794Z,21.53
2018-09-27T21:25:28.933Z,12.87
2018-09-27T21:27:56.162Z,14.13
2018-09-27T21:30:23.328Z,11.90
2018-09-27T21:32:50.472Z,9.03
2018-09-27T21:35:17.619Z,8.53
2018-09-27T21:37:44.752Z,11.63
2018-09-27T21:40:11.913Z,12.67
2018-09-27T21:42:39.077Z,9.87
2018-09-27T21:45:06.243Z,8.83
2018-09-27T21:47:33.470Z,11.30
2018-09-27T21:50:00.660Z,7.43
2018-09-27T21:52:27.803Z,9.33
2018-09-27T21:54:54.956Z,14.77
2018-09-27T21:57:22.107Z,17.90
2018-09-27T21:59:49.267Z,14.40
2018-09-27T22:02:16.453Z,9.03
2018-09-27T22:04:44.296Z,10.30
2018-09-27T22:07:11.440Z,37.47
2018-09-27T22:09:38.531Z,26.00
2018-09-27T22:12:05.724Z,53.23
2018-09-27T22:14:32.884Z,32.17
2018-09-27T22:17:00.037Z,15.83
2018-09-27T22:19:27.200Z,24.87
2018-09-27T22:21:54.320Z,19.17
2018-09-27T22:24:21.448Z,15.93
2018-09-27T22:26:48.584Z,17.90
2018-09-27T22:29:15.733Z,14.43
2018-09-27T22:31:42.894Z,14.43
2018-09-27T22:34:10.030Z,10.87
2018-09-27T22:36:37.244Z,12.30
2018-09-27T22:39:05.653Z,9.43
2018-09-27T22:41:32.758Z,9.50
2018-09-27T22:43:59.928Z,10.80
2018-09-27T22:46:27.064Z,14.80
2018-09-27T22:48:54.221Z,9.73
2018-09-27T22:51:21.399Z,16.90
2018-09-27T22:53:48.511Z,12.23
2018-09-27T22:56:15.652Z,6.47
2018-09-27T22:58:42.843Z,13.93
2018-09-27T23:01:09.993Z,6.27
2018-09-27T23:03:37.137Z,12.33
2018-09-27T23:06:04.339Z,9.00
2018-09-27T23:08:31.536Z,7.07
2018-09-27T23:10:58.692Z,12.13
2018-09-27T23:13:25.928Z,12.00
2018-09-27T23:15:53.073Z,8.60
2018-09-27T23:18:20.234Z,8.53
2018-09-27T23:20:47.392Z,17.70
2018-09-27T23:23:14.577Z,9.70
2018-09-27T23:25:41.713Z,6.50
2018-09-27T23:28:08.909Z,9.90
2018-09-27T23:30:36.050Z,6.77
2018-09-27T23:33:03.189Z,7.77
2018-09-27T23:35:30.387Z,7.40
2018-09-27T23:37:57.492Z,7.40
2018-09-27T23:40:24.710Z,6.80
2018-09-27T23:42:51.905Z,6.73
2018-09-27T23:45:19.022Z,8.60
2018-09-27T23:47:46.184Z,6.73
2018-09-27T23:50:13.402Z,5.73
2018-09-27T23:52:40.776Z,7.03
2018-09-27T23:55:08.000Z,5.40
2018-09-27T23:57:35.165Z,5.30
